createdAt,value
2022-10-25T00:00:24.746Z,4.63
2022-10-25T00:02:36.955Z,7.18
2022-10-25T00:04:47.875Z,6.97
2022-10-25T00:06:56.387Z,5.68
2022-10-25T00:09:07.398Z,4.97
2022-10-25T00:11:21.873Z,5.32
2022-10-25T00:13:30.343Z,5.65
2022-10-25T00:15:38.784Z,5.78
2022-10-25T00:17:47.918Z,5.95
2022-10-25T00:19:56.530Z,5.15
2022-10-25T00:22:04.805Z,4.82
2022-10-25T00:24:16.431Z,5.38
2022-10-25T00:26:25.551Z,4.85
2022-10-25T00:28:34.424Z,5.20
2022-10-25T00:30:42.784Z,6.07
2022-10-25T00:32:52.993Z,4.28
2022-10-25T00:35:01.028Z,5.28
2022-10-25T00:37:10.259Z,3.70
2022-10-25T00:39:21.439Z,3.28
2022-10-25T00:41:32.748Z,2.70
2022-10-25T00:43:43.011Z,3.47
2022-10-25T00:45:51.520Z,5.93
2022-10-25T00:48:03.096Z,3.22
2022-10-25T00:50:20.294Z,3.80
2022-10-25T00:52:31.275Z,3.88
2022-10-25T00:54:48.023Z,3.63
2022-10-25T00:56:58.150Z,7.78
2022-10-25T00:59:10.588Z,6.05
2022-10-25T01:01:19.258Z,4.35
2022-10-25T01:03:28.535Z,4.80
2022-10-25T01:05:37.636Z,3.78
2022-10-25T01:07:46.282Z,6.55
2022-10-25T01:10:01.261Z,6.28
2022-10-25T01:12:09.791Z,3.80
2022-10-25T01:14:20.536Z,4.28
2022-10-25T01:16:36.674Z,4.82
2022-10-25T01:18:49.827Z,4.22
2022-10-25T01:21:39.569Z,4.18
2022-10-25T01:24:06.407Z,3.50
2022-10-25T01:26:53.230Z,4.35
2022-10-25T01:29:27.264Z,4.35
2022-10-25T01:31:43.800Z,3.80
2022-10-25T01:34:09.391Z,5.38
2022-10-25T01:36:26.118Z,4.00
2022-10-25T01:38:43.438Z,3.45
2022-10-25T01:41:02.177Z,3.78
2022-10-25T01:43:18.374Z,6.47
2022-10-25T01:45:32.818Z,3.30
2022-10-25T01:47:50.315Z,4.30
2022-10-25T01:50:04.074Z,4.18
2022-10-25T01:52:14.499Z,4.70
2022-10-25T01:54:25.179Z,5.63
2022-10-25T01:56:36.597Z,7.88
2022-10-25T01:58:55.272Z,7.20
2022-10-25T02:01:16.092Z,6.50
2022-10-25T02:03:40.331Z,6.70
2022-10-25T02:06:00.266Z,7.38
2022-10-25T02:08:16.573Z,7.80
2022-10-25T02:10:31.605Z,7.80
2022-10-25T02:12:51.544Z,6.47
2022-10-25T02:15:07.883Z,7.07
2022-10-25T02:17:21.003Z,6.55
2022-10-25T02:19:36.779Z,7.55
2022-10-25T02:21:48.436Z,7.70
2022-10-25T02:23:59.902Z,6.32
2022-10-25T02:26:11.082Z,6.68
2022-10-25T02:28:21.810Z,6.35
2022-10-25T02:30:31.982Z,6.55
2022-10-25T02:32:40.275Z,6.05
2022-10-25T02:34:54.314Z,6.20
2022-10-25T02:37:02.537Z,5.97
2022-10-25T02:39:11.419Z,6.80
2022-10-25T02:44:42.928Z,7.03
2022-10-25T02:46:51.155Z,6.25
2022-10-25T02:48:59.884Z,6.68
2022-10-25T02:51:13.237Z,9.23
2022-10-25T02:53:22.291Z,7.30
2022-10-25T02:55:30.950Z,8.70
2022-10-25T02:57:41.010Z,8.38
2022-10-25T02:59:49.155Z,6.05
2022-10-25T03:01:57.505Z,5.70
2022-10-25T03:04:05.652Z,7.95
2022-10-25T03:06:17.595Z,7.38
2022-10-25T03:10:55.561Z,12.13
2022-10-25T03:13:04.420Z,10.13
2022-10-25T03:15:13.477Z,9.63
2022-10-25T03:17:21.851Z,14.07
2022-10-25T03:19:30.057Z,14.98
2022-10-25T03:21:41.990Z,10.48
2022-10-25T03:23:50.221Z,11.25
2022-10-25T03:26:03.687Z,11.65
2022-10-25T03:28:12.410Z,12.68
2022-10-25T03:30:21.037Z,11.07
2022-10-25T03:32:30.053Z,12.18
2022-10-25T03:34:38.603Z,11.43
2022-10-25T03:36:52.439Z,10.75
2022-10-25T03:39:00.703Z,14.05
2022-10-25T03:41:09.509Z,11.73
2022-10-25T03:43:18.802Z,13.65
2022-10-25T03:45:27.046Z,17.65
2022-10-25T03:47:35.451Z,11.48
2022-10-25T03:49:44.083Z,9.98
2022-10-25T03:51:57.879Z,11.88
2022-10-25T03:54:09.310Z,12.27
2022-10-25T03:56:17.665Z,14.82
2022-10-25T03:58:25.816Z,14.50
2022-10-25T04:00:34.068Z,14.27
2022-10-25T04:02:42.880Z,18.45
2022-10-25T04:04:51.700Z,14.80
2022-10-25T04:07:02.506Z,12.68
2022-10-25T04:09:13.366Z,13.00
2022-10-25T04:11:21.608Z,10.45
2022-10-25T04:13:30.340Z,12.27
2022-10-25T04:15:40.451Z,9.82
2022-10-25T04:17:52.466Z,13.30
2022-10-25T04:20:00.369Z,13.70
2022-10-25T04:22:11.516Z,9.95
2022-10-25T04:24:19.747Z,12.70
2022-10-25T04:26:27.972Z,10.80
2022-10-25T04:28:36.242Z,9.70
2022-10-25T04:30:46.411Z,10.13
2022-10-25T04:32:54.264Z,11.63
2022-10-25T04:35:02.190Z,10.85
2022-10-25T04:37:12.953Z,10.00
2022-10-25T04:39:20.808Z,8.65
2022-10-25T04:41:29.189Z,8.98
2022-10-25T04:43:37.635Z,8.07
2022-10-25T04:45:45.671Z,11.10
2022-10-25T04:47:54.183Z,7.50
2022-10-25T04:50:02.409Z,7.68
2022-10-25T04:52:13.160Z,8.45
2022-10-25T04:54:21.466Z,8.30
2022-10-25T04:56:31.910Z,12.20
2022-10-25T04:58:40.634Z,9.38
2022-10-25T05:00:50.524Z,8.65
2022-10-25T05:02:58.698Z,8.70
2022-10-25T05:05:07.881Z,11.82
2022-10-25T05:07:20.361Z,8.77
2022-10-25T05:09:28.445Z,8.85
2022-10-25T05:14:04.969Z,10.45
2022-10-25T05:16:20.343Z,9.30
2022-10-25T05:18:28.685Z,8.75
2022-10-25T05:20:36.978Z,10.48
2022-10-25T05:22:48.173Z,11.00
2022-10-25T05:24:56.735Z,13.10
2022-10-25T05:27:05.279Z,9.80
2022-10-25T05:29:15.354Z,10.48
2022-10-25T05:31:28.062Z,9.95
2022-10-25T05:33:36.670Z,10.18
2022-10-25T05:35:44.678Z,11.35
2022-10-25T05:37:57.917Z,11.77
2022-10-25T05:40:11.634Z,11.15
2022-10-25T05:42:21.561Z,10.88
2022-10-25T05:44:29.608Z,9.25
2022-10-25T05:46:38.011Z,9.80
2022-10-25T05:48:48.888Z,10.18
2022-10-25T05:51:03.693Z,9.15
2022-10-25T05:53:26.456Z,8.15
2022-10-25T05:55:37.255Z,10.88
2022-10-25T05:57:45.641Z,10.77
2022-10-25T05:59:53.873Z,10.23
2022-10-25T06:02:03.230Z,10.88
2022-10-25T06:04:12.541Z,9.13
2022-10-25T06:06:22.004Z,9.25
2022-10-25T06:08:33.865Z,11.00
2022-10-25T06:10:42.945Z,8.40
2022-10-25T06:12:51.423Z,9.32
2022-10-25T06:14:59.825Z,12.23
2022-10-25T06:17:08.365Z,9.05
2022-10-25T06:19:16.874Z,8.45
2022-10-25T06:21:27.240Z,9.00
2022-10-25T06:23:39.233Z,7.50
2022-10-25T06:25:47.578Z,10.02
2022-10-25T06:27:55.806Z,8.70
2022-10-25T06:30:03.954Z,9.30
2022-10-25T06:32:12.133Z,11.23
2022-10-25T06:34:20.727Z,9.48
2022-10-25T06:36:31.220Z,7.93
2022-10-25T06:38:42.203Z,8.65
2022-10-25T06:40:50.255Z,8.63
2022-10-25T06:42:59.432Z,8.55
2022-10-25T06:45:08.718Z,8.45
2022-10-25T06:47:18.104Z,8.15
2022-10-25T06:49:26.791Z,8.70
2022-10-25T06:51:36.613Z,8.48
2022-10-25T06:53:48.591Z,10.60
2022-10-25T06:56:00.789Z,9.90
2022-10-25T06:58:11.642Z,11.95
2022-10-25T07:00:20.489Z,12.10
2022-10-25T07:02:28.847Z,12.25
2022-10-25T07:04:37.428Z,12.45
2022-10-25T07:06:47.028Z,10.05
2022-10-25T07:09:02.089Z,11.95
2022-10-25T07:11:12.541Z,10.65
2022-10-25T07:13:20.614Z,10.60
2022-10-25T07:15:28.990Z,9.90
2022-10-25T07:17:37.363Z,9.68
2022-10-25T07:19:45.903Z,11.48
2022-10-25T07:21:54.900Z,9.25
2022-10-25T07:24:09.088Z,9.68
2022-10-25T07:26:19.124Z,9.88
2022-10-25T07:28:28.222Z,8.75
2022-10-25T07:30:36.324Z,9.52
2022-10-25T07:32:45.773Z,10.07
2022-10-25T07:37:25.348Z,8.27
2022-10-25T07:39:36.107Z,8.15
2022-10-25T07:41:44.599Z,12.05
2022-10-25T07:43:52.814Z,14.23
2022-10-25T07:46:01.855Z,10.95
2022-10-25T07:48:10.061Z,9.90
2022-10-25T07:50:19.818Z,10.60
2022-10-25T07:52:28.007Z,10.60
2022-10-25T07:54:38.934Z,10.50
2022-10-25T07:56:47.391Z,12.57
2022-10-25T07:58:56.048Z,16.90
2022-10-25T08:01:05.319Z,20.33
2022-10-25T08:03:13.907Z,15.45
2022-10-25T08:05:22.797Z,15.70
2022-10-25T08:07:31.628Z,11.75
2022-10-25T08:09:43.938Z,11.77
2022-10-25T08:11:52.911Z,9.85
2022-10-25T08:14:01.254Z,7.72
2022-10-25T08:16:10.626Z,8.98
2022-10-25T08:18:18.858Z,7.18
2022-10-25T08:20:49.152Z,7.97
2022-10-25T08:22:55.691Z,6.30
2022-10-25T08:25:06.896Z,6.97
2022-10-25T08:27:14.978Z,8.25
2022-10-25T08:29:23.483Z,5.95
2022-10-25T08:31:33.333Z,6.22
2022-10-25T08:33:42.478Z,6.57
2022-10-25T08:35:50.488Z,6.13
2022-10-25T08:37:58.470Z,11.63
2022-10-25T08:40:17.709Z,14.90
2022-10-25T08:42:31.174Z,12.63
2022-10-25T08:44:48.956Z,8.52
2022-10-25T08:47:02.464Z,13.48
2022-10-25T08:49:19.937Z,9.93
2022-10-25T08:51:32.851Z,11.68
2022-10-25T08:53:46.155Z,10.00
2022-10-25T08:56:15.188Z,11.18
2022-10-25T08:58:30.028Z,13.85
2022-10-25T09:00:43.273Z,8.50
2022-10-25T09:02:56.601Z,9.48
2022-10-25T09:05:04.988Z,9.30
2022-10-25T09:07:40.604Z,5.53
2022-10-25T09:09:59.865Z,6.15
2022-10-25T09:12:22.786Z,4.35
2022-10-25T09:14:38.121Z,3.72
2022-10-25T09:16:54.082Z,2.85
2022-10-25T09:19:02.253Z,3.57
2022-10-25T09:21:22.453Z,2.90
2022-10-25T09:23:36.313Z,2.50
2022-10-25T09:25:53.698Z,2.63
2022-10-25T09:28:07.152Z,3.07
2022-10-25T09:30:16.686Z,2.60
2022-10-25T09:32:31.472Z,2.10
2022-10-25T09:34:40.961Z,3.90
2022-10-25T09:36:50.906Z,1.97
2022-10-25T09:39:03.494Z,2.03
2022-10-25T09:41:18.635Z,2.77
2022-10-25T09:43:37.427Z,3.50
2022-10-25T09:45:50.160Z,2.07
2022-10-25T09:48:07.667Z,1.60
2022-10-25T09:50:22.773Z,1.57
2022-10-25T09:52:40.124Z,5.67
2022-10-25T09:54:53.325Z,3.50
2022-10-25T09:57:01.948Z,4.53
2022-10-25T09:59:17.022Z,4.50
2022-10-25T10:01:31.163Z,6.40
2022-10-25T10:03:41.532Z,2.93
2022-10-25T10:05:55.338Z,3.00
2022-10-25T10:08:03.794Z,3.40
2022-10-25T10:10:15.970Z,3.03
2022-10-25T10:12:29.934Z,3.77
2022-10-25T10:14:44.668Z,1.53
2022-10-25T10:16:56.579Z,2.40
2022-10-25T10:19:18.502Z,2.63
2022-10-25T10:21:26.985Z,2.67
2022-10-25T10:23:38.785Z,3.10
2022-10-25T10:25:48.794Z,2.60
2022-10-25T10:28:00.280Z,4.67
2022-10-25T10:30:23.548Z,5.70
2022-10-25T10:32:37.101Z,5.97
2022-10-25T10:34:47.911Z,5.82
2022-10-25T10:37:07.919Z,4.20
2022-10-25T10:39:23.591Z,3.03
2022-10-25T10:41:32.254Z,4.38
2022-10-25T10:43:40.800Z,3.33
2022-10-25T10:45:55.383Z,3.20
2022-10-25T10:48:03.937Z,2.40
2022-10-25T10:50:19.300Z,2.05
2022-10-25T10:52:33.939Z,2.72
2022-10-25T10:54:51.135Z,2.22
2022-10-25T10:57:06.115Z,9.00
2022-10-25T10:59:30.695Z,3.55
2022-10-25T11:01:41.659Z,1.60
2022-10-25T11:04:00.228Z,1.70
2022-10-25T11:06:17.046Z,1.60
2022-10-25T11:08:25.117Z,1.70
2022-10-25T11:10:35.234Z,4.70
2022-10-25T11:12:43.741Z,3.65
2022-10-25T11:14:52.230Z,1.77
2022-10-25T11:17:08.621Z,1.85
2022-10-25T11:19:36.386Z,2.53
2022-10-25T11:22:03.205Z,4.53
2022-10-25T11:24:21.467Z,2.60
2022-10-25T11:26:39.397Z,2.15
2022-10-25T11:28:57.368Z,2.45
2022-10-25T11:31:13.661Z,2.90
2022-10-25T11:33:47.302Z,3.78
2022-10-25T11:36:22.141Z,2.17
2022-10-25T11:38:41.462Z,2.97
2022-10-25T11:40:58.356Z,2.28
2022-10-25T11:43:24.294Z,1.75
2022-10-25T11:45:39.658Z,2.55
2022-10-25T11:47:57.774Z,2.15
2022-10-25T11:50:21.697Z,1.48
2022-10-25T11:52:48.906Z,5.28
2022-10-25T11:55:08.992Z,2.33
2022-10-25T11:57:30.067Z,2.47
2022-10-25T11:59:51.438Z,1.40
2022-10-25T12:02:13.706Z,2.38
2022-10-25T12:04:45.735Z,2.10
2022-10-25T12:07:06.306Z,1.80
2022-10-25T12:09:27.001Z,1.05
2022-10-25T12:11:37.318Z,1.63
2022-10-25T12:13:49.680Z,1.45
2022-10-25T12:16:00.285Z,1.58
2022-10-25T12:18:10.447Z,3.78
2022-10-25T12:20:26.073Z,2.08
2022-10-25T12:22:41.232Z,1.58
2022-10-25T12:24:53.761Z,2.65
2022-10-25T12:27:02.134Z,2.88
2022-10-25T12:29:17.707Z,1.00
2022-10-25T12:31:30.244Z,1.85
2022-10-25T12:33:43.495Z,1.77
2022-10-25T12:35:54.197Z,2.08
2022-10-25T12:38:13.469Z,1.98
2022-10-25T12:42:58.058Z,1.45
2022-10-25T12:45:28.597Z,1.42
2022-10-25T12:47:51.893Z,1.02
2022-10-25T12:50:27.036Z,2.05
2022-10-25T12:52:38.974Z,2.15
2022-10-25T12:55:24.551Z,1.38
2022-10-25T12:57:47.593Z,1.80
2022-10-25T13:00:13.762Z,1.25
2022-10-25T13:02:50.884Z,1.67
2022-10-25T13:05:14.488Z,1.77
2022-10-25T13:07:24.766Z,1.27
2022-10-25T13:09:36.000Z,1.70
2022-10-25T13:11:54.623Z,2.60
2022-10-25T13:14:06.301Z,1.65
2022-10-25T13:16:14.954Z,1.02
2022-10-25T13:18:44.816Z,2.15
2022-10-25T13:20:54.327Z,0.88
2022-10-25T13:23:02.305Z,1.58
2022-10-25T13:25:21.160Z,1.25
2022-10-25T13:27:35.033Z,2.35
2022-10-25T13:30:13.558Z,1.02
2022-10-25T13:32:22.720Z,0.90
2022-10-25T13:34:35.843Z,1.40
2022-10-25T13:36:51.622Z,5.85
2022-10-25T13:39:09.193Z,1.35
2022-10-25T13:41:19.537Z,1.50
2022-10-25T13:43:30.629Z,3.60
2022-10-25T13:45:44.027Z,4.82
2022-10-25T13:47:55.490Z,2.85
2022-10-25T13:50:04.975Z,2.22
2022-10-25T13:52:26.856Z,2.20
2022-10-25T13:54:50.470Z,2.05
2022-10-25T13:56:59.718Z,4.75
2022-10-25T13:59:58.842Z,2.35
2022-10-25T14:02:29.290Z,2.33
2022-10-25T14:04:43.936Z,3.20
2022-10-25T14:06:52.269Z,5.40
2022-10-25T14:09:12.420Z,2.90
2022-10-25T14:11:24.014Z,3.05
2022-10-25T14:13:42.313Z,6.13
2022-10-25T14:16:06.122Z,3.35
2022-10-25T14:18:20.748Z,4.90
2022-10-25T14:20:32.465Z,2.30
2022-10-25T14:22:44.431Z,1.52
2022-10-25T14:24:56.031Z,2.25
2022-10-25T14:27:04.527Z,1.23
2022-10-25T14:29:17.065Z,4.97
2022-10-25T14:31:27.861Z,3.15
2022-10-25T14:33:40.885Z,4.97
2022-10-25T14:35:55.429Z,2.80
2022-10-25T14:38:06.930Z,5.63
2022-10-25T14:40:24.427Z,3.08
2022-10-25T14:42:32.531Z,2.65
2022-10-25T14:44:49.121Z,2.60
2022-10-25T14:47:03.432Z,3.00
2022-10-25T14:49:13.571Z,2.33
2022-10-25T14:51:24.537Z,1.98
2022-10-25T14:53:33.494Z,1.98
2022-10-25T14:55:41.939Z,2.08
2022-10-25T14:57:50.554Z,4.25
2022-10-25T15:00:01.694Z,2.53
2022-10-25T15:02:19.009Z,2.55
2022-10-25T15:04:35.727Z,4.32
2022-10-25T15:06:43.979Z,4.68
2022-10-25T15:09:00.784Z,3.58
2022-10-25T15:11:20.990Z,3.42
2022-10-25T15:13:33.371Z,2.75
2022-10-25T15:15:44.949Z,3.58
2022-10-25T15:17:56.750Z,3.25
2022-10-25T15:20:08.800Z,4.78
2022-10-25T15:22:18.864Z,2.17
2022-10-25T15:24:29.807Z,2.53
2022-10-25T15:26:39.074Z,4.15
2022-10-25T15:28:51.481Z,6.43
2022-10-25T15:31:07.886Z,1.75
2022-10-25T15:33:21.522Z,2.47
2022-10-25T15:35:31.706Z,3.22
2022-10-25T15:37:43.186Z,2.65
2022-10-25T15:39:53.176Z,2.45
2022-10-25T15:42:01.184Z,2.50
2022-10-25T15:44:10.963Z,2.25
2022-10-25T15:46:28.440Z,3.50
2022-10-25T15:48:39.175Z,3.92
2022-10-25T15:50:51.814Z,2.58
2022-10-25T15:53:01.203Z,4.15
2022-10-25T15:55:20.564Z,4.93
2022-10-25T15:57:29.581Z,5.65
2022-10-25T15:59:37.541Z,3.42
2022-10-25T16:01:50.797Z,4.45
2022-10-25T16:04:01.885Z,3.00
2022-10-25T16:06:12.691Z,3.63
2022-10-25T16:08:21.127Z,3.53
2022-10-25T16:10:31.152Z,3.85
2022-10-25T16:12:40.288Z,3.58
2022-10-25T16:14:48.860Z,5.68
2022-10-25T16:16:59.989Z,3.78
2022-10-25T16:19:15.212Z,3.25
2022-10-25T16:21:23.535Z,3.38
2022-10-25T16:23:31.832Z,4.22
2022-10-25T16:25:40.321Z,4.20
2022-10-25T16:27:52.148Z,3.83
2022-10-25T16:30:00.271Z,3.90
2022-10-25T16:32:08.697Z,5.03
2022-10-25T16:34:20.020Z,5.55
2022-10-25T16:36:28.331Z,2.67
2022-10-25T16:38:36.411Z,3.05
2022-10-25T16:40:45.344Z,4.80
2022-10-25T16:42:53.372Z,4.88
2022-10-25T16:45:02.539Z,3.83
2022-10-25T16:47:10.575Z,3.67
2022-10-25T16:49:21.115Z,6.28
2022-10-25T16:51:29.517Z,3.58
2022-10-25T16:53:37.501Z,7.57
2022-10-25T16:55:45.629Z,2.42
2022-10-25T16:57:53.936Z,3.45
2022-10-25T17:00:02.161Z,5.53
2022-10-25T17:02:19.314Z,4.93
2022-10-25T17:04:30.124Z,3.25
2022-10-25T17:06:42.388Z,5.40
2022-10-25T17:08:51.212Z,4.45
2022-10-25T17:11:00.249Z,7.97
2022-10-25T17:13:09.631Z,3.83
2022-10-25T17:15:18.360Z,4.75
2022-10-25T17:17:27.249Z,5.78
2022-10-25T17:19:39.605Z,8.10
2022-10-25T17:21:47.527Z,6.10
2022-10-25T17:23:55.907Z,4.13
2022-10-25T17:26:04.746Z,4.55
2022-10-25T17:28:12.859Z,4.30
2022-10-25T17:30:20.807Z,6.38
2022-10-25T17:32:28.860Z,3.50
2022-10-25T17:34:39.582Z,3.55
2022-10-25T17:36:48.409Z,4.63
2022-10-25T17:38:56.912Z,4.45
2022-10-25T17:41:05.124Z,5.70
2022-10-25T17:43:15.598Z,4.40
2022-10-25T17:45:24.014Z,3.67
2022-10-25T17:47:37.611Z,4.75
2022-10-25T17:49:48.827Z,8.43
2022-10-25T17:51:57.227Z,6.55
2022-10-25T17:54:05.389Z,4.70
2022-10-25T17:56:15.231Z,4.90
2022-10-25T17:58:23.550Z,4.43
2022-10-25T18:00:31.890Z,4.00
2022-10-25T18:02:40.574Z,3.80
2022-10-25T18:05:18.865Z,4.72
2022-10-25T18:07:19.962Z,4.40
2022-10-25T18:09:28.300Z,6.90
2022-10-25T18:11:36.844Z,4.00
2022-10-25T18:13:45.387Z,5.97
2022-10-25T18:15:54.554Z,6.05
2022-10-25T18:18:03.129Z,5.18
2022-10-25T18:20:15.210Z,4.63
2022-10-25T18:22:25.450Z,5.88
2022-10-25T18:24:34.661Z,5.10
2022-10-25T18:26:42.813Z,4.03
2022-10-25T18:28:51.141Z,3.78
2022-10-25T18:31:02.516Z,5.05
2022-10-25T18:33:14.535Z,3.70
2022-10-25T18:35:28.661Z,3.60
2022-10-25T18:37:37.444Z,5.80
2022-10-25T18:39:48.578Z,2.95
2022-10-25T18:41:58.827Z,4.88
2022-10-25T18:44:16.134Z,7.30
2022-10-25T18:46:25.343Z,4.40
2022-10-25T18:48:35.439Z,6.60
2022-10-25T18:51:05.340Z,4.18
2022-10-25T18:53:14.025Z,4.65
2022-10-25T18:55:26.842Z,4.10
2022-10-25T18:57:34.891Z,4.53
2022-10-25T18:59:42.944Z,4.25
2022-10-25T19:01:51.410Z,4.65
2022-10-25T19:04:02.363Z,6.47
2022-10-25T19:06:14.809Z,5.13
2022-10-25T19:08:23.805Z,5.32
2022-10-25T19:10:41.584Z,5.60
2022-10-25T19:12:49.877Z,6.40
2022-10-25T19:14:57.996Z,5.35
2022-10-25T19:17:06.227Z,5.60
2022-10-25T19:19:15.564Z,5.20
2022-10-25T19:21:26.692Z,8.50
2022-10-25T19:23:35.355Z,6.25
2022-10-25T19:25:44.103Z,5.10
2022-10-25T19:27:52.318Z,5.28
2022-10-25T19:30:00.486Z,6.50
2022-10-25T19:32:09.681Z,9.07
2022-10-25T19:34:18.481Z,7.85
2022-10-25T19:36:37.486Z,6.40
2022-10-25T19:38:46.032Z,6.15
2022-10-25T19:40:58.984Z,5.30
2022-10-25T19:43:08.342Z,5.05
2022-10-25T19:45:17.029Z,6.93
2022-10-25T19:47:25.574Z,4.30
2022-10-25T19:49:34.149Z,5.35
2022-10-25T19:51:45.447Z,5.03
2022-10-25T19:53:56.384Z,4.43
2022-10-25T19:56:07.424Z,5.90
2022-10-25T19:58:15.732Z,6.47
2022-10-25T20:00:24.546Z,4.60
2022-10-25T20:02:32.943Z,5.90
2022-10-25T20:04:41.061Z,8.02
2022-10-25T20:06:52.750Z,4.82
2022-10-25T20:09:03.327Z,6.03
2022-10-25T20:11:14.514Z,6.00
2022-10-25T20:13:23.098Z,5.40
2022-10-25T20:15:31.199Z,6.15
2022-10-25T20:17:39.508Z,5.95
2022-10-25T20:19:49.678Z,5.35
2022-10-25T20:22:04.344Z,8.13
2022-10-25T20:24:13.863Z,5.45
2022-10-25T20:26:29.433Z,6.43
2022-10-25T20:28:37.742Z,7.93
2022-10-25T20:30:45.870Z,9.65
2022-10-25T20:32:54.356Z,6.88
2022-10-25T20:37:33.258Z,8.93
2022-10-25T20:39:41.505Z,6.03
2022-10-25T20:41:49.555Z,6.35
2022-10-25T20:44:00.500Z,5.60
2022-10-25T20:46:10.301Z,6.00
2022-10-25T20:48:18.835Z,5.97
2022-10-25T20:50:28.176Z,6.15
2022-10-25T20:52:47.668Z,7.30
2022-10-25T20:54:58.193Z,6.07
2022-10-25T20:57:15.512Z,5.47
2022-10-25T20:59:25.031Z,6.10
2022-10-25T21:01:34.755Z,5.72
2022-10-25T21:03:45.162Z,13.32
2022-10-25T21:05:57.649Z,5.38
2022-10-25T21:08:11.068Z,5.57
2022-10-25T21:10:19.639Z,4.97
2022-10-25T21:12:29.249Z,6.32
2022-10-25T21:14:37.464Z,6.50
2022-10-25T21:16:46.265Z,5.00
2022-10-25T21:18:55.125Z,5.80
2022-10-25T21:21:04.582Z,6.18
2022-10-25T21:23:17.522Z,5.82
2022-10-25T21:25:26.037Z,13.65
2022-10-25T21:27:34.137Z,5.50
2022-10-25T21:29:42.482Z,5.70
2022-10-25T21:31:51.329Z,5.13
2022-10-25T21:34:01.134Z,5.35
2022-10-25T21:36:10.337Z,5.30
2022-10-25T21:38:20.903Z,4.80
2022-10-25T21:40:29.922Z,5.43
2022-10-25T21:42:38.437Z,5.35
2022-10-25T21:44:46.350Z,6.03
2022-10-25T21:46:55.895Z,5.43
2022-10-25T21:49:04.388Z,5.72
2022-10-25T21:51:12.963Z,5.80
2022-10-25T21:53:25.496Z,4.85
2022-10-25T21:55:33.665Z,4.80
2022-10-25T21:57:42.387Z,5.63
2022-10-25T21:59:51.690Z,6.68
2022-10-25T22:02:00.007Z,6.10
2022-10-25T22:04:08.210Z,5.72
2022-10-25T22:06:18.214Z,6.22
2022-10-25T22:08:29.551Z,5.97
2022-10-25T22:10:37.935Z,6.05
2022-10-25T22:12:46.525Z,6.10
2022-10-25T22:14:55.337Z,6.38
2022-10-25T22:17:03.333Z,6.35
2022-10-25T22:19:17.307Z,12.32
2022-10-25T22:21:25.806Z,4.97
2022-10-25T22:23:37.887Z,5.25
2022-10-25T22:25:46.210Z,5.68
2022-10-25T22:27:54.396Z,5.25
2022-10-25T22:30:02.623Z,4.70
2022-10-25T22:32:13.317Z,5.88
2022-10-25T22:34:22.186Z,6.53
2022-10-25T22:36:34.045Z,5.85
2022-10-25T22:38:45.400Z,6.80
2022-10-25T22:41:00.491Z,6.10
2022-10-25T22:43:08.561Z,6.00
2022-10-25T22:45:17.655Z,7.88
2022-10-25T22:47:26.032Z,6.10
2022-10-25T22:49:34.472Z,9.65
2022-10-25T22:51:43.899Z,6.25
2022-10-25T22:53:54.880Z,5.03
2022-10-25T22:56:06.159Z,4.78
2022-10-25T22:58:14.646Z,8.68
2022-10-25T23:00:24.742Z,4.75
2022-10-25T23:02:32.942Z,5.80
2022-10-25T23:04:41.190Z,4.78
2022-10-25T23:06:50.578Z,8.70
2022-10-25T23:09:03.081Z,6.45
2022-10-25T23:11:16.173Z,4.95
2022-10-25T23:13:41.182Z,7.82
2022-10-25T23:15:56.890Z,6.00
2022-10-25T23:18:10.677Z,8.00
2022-10-25T23:20:19.223Z,7.28
2022-10-25T23:22:27.633Z,6.28
2022-10-25T23:24:38.780Z,7.18
2022-10-25T23:26:47.598Z,6.35
2022-10-25T23:28:56.565Z,8.18
2022-10-25T23:31:11.700Z,6.68
2022-10-25T23:33:20.184Z,6.10
2022-10-25T23:35:28.307Z,6.57
2022-10-25T23:37:36.450Z,6.32
2022-10-25T23:39:47.141Z,5.93
2022-10-25T23:41:57.077Z,6.63
2022-10-25T23:44:05.352Z,5.68
2022-10-25T23:46:14.277Z,7.97
2022-10-25T23:48:23.315Z,5.95
2022-10-25T23:50:31.589Z,6.72
2022-10-25T23:52:42.216Z,7.97
2022-10-25T23:54:53.067Z,5.95
2022-10-25T23:57:01.058Z,5.97
2022-10-25T23:59:08.976Z,6.38
